sensor_id;sensor_type;location;lat;lon;timestamp;temperature;humidity
20735;DHT22;10528;52.124;5.196;2023-05-16T00:00:37;10.40;99.90
20735;DHT22;10528;52.124;5.196;2023-05-16T00:03:05;10.40;99.90
20735;DHT22;10528;52.124;5.196;2023-05-16T00:05:32;10.40;99.90
20735;DHT22;10528;52.124;5.196;2023-05-16T00:07:59;10.40;99.90
20735;DHT22;10528;52.124;5.196;2023-05-16T00:10:26;10.40;99.90
20735;DHT22;10528;52.124;5.196;2023-05-16T00:12:53;10.30;99.90
20735;DHT22;10528;52.124;5.196;2023-05-16T00:15:22;10.20;99.90
20735;DHT22;10528;52.124;5.196;2023-05-16T00:17:50;10.20;99.90
20735;DHT22;10528;52.124;5.196;2023-05-16T00:20:17;10.20;99.90
20735;DHT22;10528;52.124;5.196;2023-05-16T00:22:48;10.20;99.90
20735;DHT22;10528;52.124;5.196;2023-05-16T00:25:15;10.20;99.90
20735;DHT22;10528;52.124;5.196;2023-05-16T00:27:42;10.20;99.90
20735;DHT22;10528;52.124;5.196;2023-05-16T00:30:09;10.00;99.90
20735;DHT22;10528;52.124;5.196;2023-05-16T00:32:36;10.10;99.90
20735;DHT22;10528;52.124;5.196;2023-05-16T00:35:05;10.10;99.90
20735;DHT22;10528;52.124;5.196;2023-05-16T00:37:32;10.10;99.90
20735;DHT22;10528;52.124;5.196;2023-05-16T00:39:59;10.10;99.90
20735;DHT22;10528;52.124;5.196;2023-05-16T00:42:26;10.10;99.90
20735;DHT22;10528;52.124;5.196;2023-05-16T00:44:53;10.10;99.90
20735;DHT22;10528;52.124;5.196;2023-05-16T00:47:19;10.00;99.90
20735;DHT22;10528;52.124;5.196;2023-05-16T00:49:46;9.90;99.90
20735;DHT22;10528;52.124;5.196;2023-05-16T00:52:15;9.90;99.90
20735;DHT22;10528;52.124;5.196;2023-05-16T00:54:42;9.90;99.90
20735;DHT22;10528;52.124;5.196;2023-05-16T00:57:09;9.90;99.90
20735;DHT22;10528;52.124;5.196;2023-05-16T00:59:36;9.90;99.90
20735;DHT22;10528;52.124;5.196;2023-05-16T01:02:03;9.90;99.90
20735;DHT22;10528;52.124;5.196;2023-05-16T01:04:31;9.90;99.90
20735;DHT22;10528;52.124;5.196;2023-05-16T01:07:00;9.80;99.90
20735;DHT22;10528;52.124;5.196;2023-05-16T01:09:28;9.80;99.90
20735;DHT22;10528;52.124;5.196;2023-05-16T01:14:53;9.80;99.90
20735;DHT22;10528;52.124;5.196;2023-05-16T01:20:29;9.70;99.90
20735;DHT22;10528;52.124;5.196;2023-05-16T01:26:22;9.70;99.90
20735;DHT22;10528;52.124;5.196;2023-05-16T01:28:51;9.70;99.90
20735;DHT22;10528;52.124;5.196;2023-05-16T01:31:20;9.70;99.90
20735;DHT22;10528;52.124;5.196;2023-05-16T01:33:47;9.60;99.90
20735;DHT22;10528;52.124;5.196;2023-05-16T01:36:25;9.60;99.90
20735;DHT22;10528;52.124;5.196;2023-05-16T01:42:09;9.50;99.90
20735;DHT22;10528;52.124;5.196;2023-05-16T01:44:40;9.50;99.90
20735;DHT22;10528;52.124;5.196;2023-05-16T01:47:20;9.40;99.90
20735;DHT22;10528;52.124;5.196;2023-05-16T01:52:55;9.30;99.90
20735;DHT22;10528;52.124;5.196;2023-05-16T01:55:39;9.30;99.90
20735;DHT22;10528;52.124;5.196;2023-05-16T01:58:10;9.20;99.90
20735;DHT22;10528;52.124;5.196;2023-05-16T02:00:42;9.20;99.90
20735;DHT22;10528;52.124;5.196;2023-05-16T02:03:10;9.30;99.90
20735;DHT22;10528;52.124;5.196;2023-05-16T02:05:37;9.30;99.90
20735;DHT22;10528;52.124;5.196;2023-05-16T02:08:05;9.20;99.90
20735;DHT22;10528;52.124;5.196;2023-05-16T02:10:32;9.30;99.90
20735;DHT22;10528;52.124;5.196;2023-05-16T02:12:59;9.30;99.90
20735;DHT22;10528;52.124;5.196;2023-05-16T02:15:25;9.30;99.90
20735;DHT22;10528;52.124;5.196;2023-05-16T02:17:53;9.20;99.90
20735;DHT22;10528;52.124;5.196;2023-05-16T02:20:20;9.20;99.90
20735;DHT22;10528;52.124;5.196;2023-05-16T02:22:47;9.30;99.90
20735;DHT22;10528;52.124;5.196;2023-05-16T02:25:15;9.30;99.90
20735;DHT22;10528;52.124;5.196;2023-05-16T02:27:42;9.20;99.90
20735;DHT22;10528;52.124;5.196;2023-05-16T02:30:10;9.20;99.90
20735;DHT22;10528;52.124;5.196;2023-05-16T02:32:40;9.10;99.90
20735;DHT22;10528;52.124;5.196;2023-05-16T02:35:10;9.10;99.90
20735;DHT22;10528;52.124;5.196;2023-05-16T02:37:38;9.10;99.90
20735;DHT22;10528;52.124;5.196;2023-05-16T02:40:06;9.10;99.90
20735;DHT22;10528;52.124;5.196;2023-05-16T02:42:35;9.10;99.90
20735;DHT22;10528;52.124;5.196;2023-05-16T02:45:02;9.00;99.90
20735;DHT22;10528;52.124;5.196;2023-05-16T02:47:29;9.00;99.90
20735;DHT22;10528;52.124;5.196;2023-05-16T02:49:56;9.00;99.90
20735;DHT22;10528;52.124;5.196;2023-05-16T02:52:23;9.00;99.90
20735;DHT22;10528;52.124;5.196;2023-05-16T02:54:50;8.90;99.90
20735;DHT22;10528;52.124;5.196;2023-05-16T02:57:36;8.90;99.90
20735;DHT22;10528;52.124;5.196;2023-05-16T03:00:04;8.80;99.90
20735;DHT22;10528;52.124;5.196;2023-05-16T03:02:31;8.80;99.90
20735;DHT22;10528;52.124;5.196;2023-05-16T03:04:58;8.80;99.90
20735;DHT22;10528;52.124;5.196;2023-05-16T03:07:25;8.70;99.90
20735;DHT22;10528;52.124;5.196;2023-05-16T03:09:52;8.70;99.90
20735;DHT22;10528;52.124;5.196;2023-05-16T03:12:19;8.60;99.90
20735;DHT22;10528;52.124;5.196;2023-05-16T03:14:46;8.70;99.90
20735;DHT22;10528;52.124;5.196;2023-05-16T03:17:12;8.70;99.90
20735;DHT22;10528;52.124;5.196;2023-05-16T03:19:39;8.70;99.90
20735;DHT22;10528;52.124;5.196;2023-05-16T03:22:06;8.70;99.90
20735;DHT22;10528;52.124;5.196;2023-05-16T03:24:33;8.60;99.90
20735;DHT22;10528;52.124;5.196;2023-05-16T03:27:00;8.60;99.90
20735;DHT22;10528;52.124;5.196;2023-05-16T03:29:29;8.70;99.90
20735;DHT22;10528;52.124;5.196;2023-05-16T03:31:56;8.60;99.90
20735;DHT22;10528;52.124;5.196;2023-05-16T03:34:23;8.70;99.90
20735;DHT22;10528;52.124;5.196;2023-05-16T03:36:51;8.60;99.90
20735;DHT22;10528;52.124;5.196;2023-05-16T03:39:18;8.60;99.90
20735;DHT22;10528;52.124;5.196;2023-05-16T03:41:45;8.60;99.90
20735;DHT22;10528;52.124;5.196;2023-05-16T03:44:12;8.60;99.90
20735;DHT22;10528;52.124;5.196;2023-05-16T03:46:39;8.60;99.90
20735;DHT22;10528;52.124;5.196;2023-05-16T03:49:06;8.60;99.90
20735;DHT22;10528;52.124;5.196;2023-05-16T03:51:32;8.60;99.90
20735;DHT22;10528;52.124;5.196;2023-05-16T03:53:59;8.50;99.90
20735;DHT22;10528;52.124;5.196;2023-05-16T03:56:26;8.50;99.90
20735;DHT22;10528;52.124;5.196;2023-05-16T03:58:53;8.50;99.90
20735;DHT22;10528;52.124;5.196;2023-05-16T04:01:20;8.50;99.90
20735;DHT22;10528;52.124;5.196;2023-05-16T04:03:47;8.50;99.90
20735;DHT22;10528;52.124;5.196;2023-05-16T04:06:16;8.50;99.90
20735;DHT22;10528;52.124;5.196;2023-05-16T04:08:43;8.50;99.90
20735;DHT22;10528;52.124;5.196;2023-05-16T04:11:10;8.50;99.90
20735;DHT22;10528;52.124;5.196;2023-05-16T04:13:37;8.40;99.90
20735;DHT22;10528;52.124;5.196;2023-05-16T04:16:05;8.40;99.90
20735;DHT22;10528;52.124;5.196;2023-05-16T04:18:32;8.50;99.90
20735;DHT22;10528;52.124;5.196;2023-05-16T04:20:59;8.50;99.90
20735;DHT22;10528;52.124;5.196;2023-05-16T04:23:26;8.50;99.90
20735;DHT22;10528;52.124;5.196;2023-05-16T04:25:53;8.60;99.90
20735;DHT22;10528;52.124;5.196;2023-05-16T04:28:22;8.70;99.90
20735;DHT22;10528;52.124;5.196;2023-05-16T04:30:49;8.60;99.90
20735;DHT22;10528;52.124;5.196;2023-05-16T04:33:17;8.70;99.90
20735;DHT22;10528;52.124;5.196;2023-05-16T04:35:44;8.70;99.90
20735;DHT22;10528;52.124;5.196;2023-05-16T04:38:11;8.80;99.90
20735;DHT22;10528;52.124;5.196;2023-05-16T04:40:37;8.80;99.90
20735;DHT22;10528;52.124;5.196;2023-05-16T04:43:07;8.90;99.90
20735;DHT22;10528;52.124;5.196;2023-05-16T04:45:34;8.90;99.90
20735;DHT22;10528;52.124;5.196;2023-05-16T04:48:03;9.00;99.90
20735;DHT22;10528;52.124;5.196;2023-05-16T04:50:30;9.10;99.90
20735;DHT22;10528;52.124;5.196;2023-05-16T04:52:57;9.20;99.90
20735;DHT22;10528;52.124;5.196;2023-05-16T04:55:24;9.20;99.90
20735;DHT22;10528;52.124;5.196;2023-05-16T04:57:51;9.30;99.90
20735;DHT22;10528;52.124;5.196;2023-05-16T05:00:18;9.50;99.90
20735;DHT22;10528;52.124;5.196;2023-05-16T05:02:46;9.60;99.90
20735;DHT22;10528;52.124;5.196;2023-05-16T05:05:13;9.70;99.90
20735;DHT22;10528;52.124;5.196;2023-05-16T05:07:40;9.80;99.90
20735;DHT22;10528;52.124;5.196;2023-05-16T05:10:07;9.80;99.90
20735;DHT22;10528;52.124;5.196;2023-05-16T05:12:34;9.80;99.90
20735;DHT22;10528;52.124;5.196;2023-05-16T05:15:02;9.90;99.90
20735;DHT22;10528;52.124;5.196;2023-05-16T05:17:29;10.00;99.90
20735;DHT22;10528;52.124;5.196;2023-05-16T05:19:56;10.10;99.90
20735;DHT22;10528;52.124;5.196;2023-05-16T05:22:25;10.00;99.90
20735;DHT22;10528;52.124;5.196;2023-05-16T05:24:51;10.10;99.90
20735;DHT22;10528;52.124;5.196;2023-05-16T05:27:18;10.20;99.90
20735;DHT22;10528;52.124;5.196;2023-05-16T05:29:45;10.20;99.90
20735;DHT22;10528;52.124;5.196;2023-05-16T05:32:12;10.20;99.90
20735;DHT22;10528;52.124;5.196;2023-05-16T05:34:39;10.50;99.90
20735;DHT22;10528;52.124;5.196;2023-05-16T05:37:06;11.00;99.90
20735;DHT22;10528;52.124;5.196;2023-05-16T05:39:33;11.20;99.90
20735;DHT22;10528;52.124;5.196;2023-05-16T05:42:00;11.50;99.90
20735;DHT22;10528;52.124;5.196;2023-05-16T05:44:29;12.20;99.90
20735;DHT22;10528;52.124;5.196;2023-05-16T05:46:57;12.90;99.90
20735;DHT22;10528;52.124;5.196;2023-05-16T05:49:25;13.50;99.90
20735;DHT22;10528;52.124;5.196;2023-05-16T05:51:53;13.90;99.90
20735;DHT22;10528;52.124;5.196;2023-05-16T05:54:20;14.10;99.90
20735;DHT22;10528;52.124;5.196;2023-05-16T05:56:47;14.40;99.90
20735;DHT22;10528;52.124;5.196;2023-05-16T05:59:14;14.80;99.90
20735;DHT22;10528;52.124;5.196;2023-05-16T06:01:41;14.90;99.90
20735;DHT22;10528;52.124;5.196;2023-05-16T06:04:10;15.50;99.90
20735;DHT22;10528;52.124;5.196;2023-05-16T06:06:37;15.80;99.90
20735;DHT22;10528;52.124;5.196;2023-05-16T06:09:05;15.80;99.90
20735;DHT22;10528;52.124;5.196;2023-05-16T06:11:32;16.20;99.90
20735;DHT22;10528;52.124;5.196;2023-05-16T06:13:59;16.40;99.90
20735;DHT22;10528;52.124;5.196;2023-05-16T06:16:26;16.60;99.90
20735;DHT22;10528;52.124;5.196;2023-05-16T06:18:53;17.00;99.90
20735;DHT22;10528;52.124;5.196;2023-05-16T06:21:20;16.80;99.90
20735;DHT22;10528;52.124;5.196;2023-05-16T06:23:47;16.70;99.90
20735;DHT22;10528;52.124;5.196;2023-05-16T06:26:14;16.30;99.90
20735;DHT22;10528;52.124;5.196;2023-05-16T06:28:41;15.90;99.90
20735;DHT22;10528;52.124;5.196;2023-05-16T06:31:08;15.40;99.90
20735;DHT22;10528;52.124;5.196;2023-05-16T06:33:35;14.80;99.90
20735;DHT22;10528;52.124;5.196;2023-05-16T06:36:02;14.40;99.90
20735;DHT22;10528;52.124;5.196;2023-05-16T06:38:29;14.10;99.90
20735;DHT22;10528;52.124;5.196;2023-05-16T06:40:56;13.90;99.90
20735;DHT22;10528;52.124;5.196;2023-05-16T06:43:22;13.80;99.90
20735;DHT22;10528;52.124;5.196;2023-05-16T06:45:49;14.20;99.90
20735;DHT22;10528;52.124;5.196;2023-05-16T06:48:17;14.70;99.90
20735;DHT22;10528;52.124;5.196;2023-05-16T06:50:48;14.80;99.90
20735;DHT22;10528;52.124;5.196;2023-05-16T06:53:18;15.20;99.90
20735;DHT22;10528;52.124;5.196;2023-05-16T06:55:45;14.90;99.90
20735;DHT22;10528;52.124;5.196;2023-05-16T06:58:13;14.50;99.90
20735;DHT22;10528;52.124;5.196;2023-05-16T07:00:40;14.50;99.90
20735;DHT22;10528;52.124;5.196;2023-05-16T07:03:07;14.50;99.90
20735;DHT22;10528;52.124;5.196;2023-05-16T07:05:34;14.70;99.90
20735;DHT22;10528;52.124;5.196;2023-05-16T07:08:01;14.80;99.90
20735;DHT22;10528;52.124;5.196;2023-05-16T07:10:29;15.00;99.90
20735;DHT22;10528;52.124;5.196;2023-05-16T07:12:56;14.60;99.90
20735;DHT22;10528;52.124;5.196;2023-05-16T07:15:23;14.50;99.90
20735;DHT22;10528;52.124;5.196;2023-05-16T07:17:51;14.80;99.90
20735;DHT22;10528;52.124;5.196;2023-05-16T07:20:18;14.50;99.90
20735;DHT22;10528;52.124;5.196;2023-05-16T07:22:45;14.20;99.90
20735;DHT22;10528;52.124;5.196;2023-05-16T07:25:12;14.10;99.90
20735;DHT22;10528;52.124;5.196;2023-05-16T07:27:40;14.10;99.90
20735;DHT22;10528;52.124;5.196;2023-05-16T07:30:11;13.70;99.90
20735;DHT22;10528;52.124;5.196;2023-05-16T07:32:39;13.60;99.90
20735;DHT22;10528;52.124;5.196;2023-05-16T07:35:07;13.60;99.90
20735;DHT22;10528;52.124;5.196;2023-05-16T07:37:35;14.60;99.90
20735;DHT22;10528;52.124;5.196;2023-05-16T07:40:02;14.80;99.90
20735;DHT22;10528;52.124;5.196;2023-05-16T07:42:30;14.30;99.90
20735;DHT22;10528;52.124;5.196;2023-05-16T07:44:57;14.10;99.90
20735;DHT22;10528;52.124;5.196;2023-05-16T07:47:24;13.90;99.90
20735;DHT22;10528;52.124;5.196;2023-05-16T07:49:51;13.70;99.90
20735;DHT22;10528;52.124;5.196;2023-05-16T07:52:18;13.70;99.90
20735;DHT22;10528;52.124;5.196;2023-05-16T07:54:46;13.50;99.90
20735;DHT22;10528;52.124;5.196;2023-05-16T07:57:14;13.50;99.90
20735;DHT22;10528;52.124;5.196;2023-05-16T07:59:42;13.40;99.90
20735;DHT22;10528;52.124;5.196;2023-05-16T08:02:10;14.40;99.90
20735;DHT22;10528;52.124;5.196;2023-05-16T08:04:37;14.50;99.90
20735;DHT22;10528;52.124;5.196;2023-05-16T08:07:04;15.70;99.90
20735;DHT22;10528;52.124;5.196;2023-05-16T08:09:31;16.60;99.90
20735;DHT22;10528;52.124;5.196;2023-05-16T08:11:58;16.10;99.90
20735;DHT22;10528;52.124;5.196;2023-05-16T08:14:30;16.90;99.90
20735;DHT22;10528;52.124;5.196;2023-05-16T08:16:58;16.70;99.90
20735;DHT22;10528;52.124;5.196;2023-05-16T08:19:26;15.90;99.90
20735;DHT22;10528;52.124;5.196;2023-05-16T08:21:53;15.40;99.90
20735;DHT22;10528;52.124;5.196;2023-05-16T08:24:20;15.90;99.90
20735;DHT22;10528;52.124;5.196;2023-05-16T08:26:47;16.90;99.90
20735;DHT22;10528;52.124;5.196;2023-05-16T08:29:14;16.70;99.90
20735;DHT22;10528;52.124;5.196;2023-05-16T08:31:41;16.00;99.90
20735;DHT22;10528;52.124;5.196;2023-05-16T08:34:08;15.90;99.90
20735;DHT22;10528;52.124;5.196;2023-05-16T08:36:36;15.60;99.90
20735;DHT22;10528;52.124;5.196;2023-05-16T08:39:03;16.10;99.90
20735;DHT22;10528;52.124;5.196;2023-05-16T08:41:30;16.80;99.90
20735;DHT22;10528;52.124;5.196;2023-05-16T08:43:57;16.50;99.90
20735;DHT22;10528;52.124;5.196;2023-05-16T08:46:24;15.50;99.90
20735;DHT22;10528;52.124;5.196;2023-05-16T08:48:58;15.50;99.90
20735;DHT22;10528;52.124;5.196;2023-05-16T08:51:30;15.70;99.90
20735;DHT22;10528;52.124;5.196;2023-05-16T08:54:03;16.10;99.90
20735;DHT22;10528;52.124;5.196;2023-05-16T08:56:33;16.60;99.90
20735;DHT22;10528;52.124;5.196;2023-05-16T08:59:01;16.30;99.90
20735;DHT22;10528;52.124;5.196;2023-05-16T09:01:30;15.90;99.90
20735;DHT22;10528;52.124;5.196;2023-05-16T09:04:02;15.50;99.90
20735;DHT22;10528;52.124;5.196;2023-05-16T09:06:30;15.70;99.90
20735;DHT22;10528;52.124;5.196;2023-05-16T09:08:58;16.20;99.90
20735;DHT22;10528;52.124;5.196;2023-05-16T09:11:24;16.40;99.90
20735;DHT22;10528;52.124;5.196;2023-05-16T09:13:51;16.60;99.90
20735;DHT22;10528;52.124;5.196;2023-05-16T09:16:19;16.40;99.90
20735;DHT22;10528;52.124;5.196;2023-05-16T09:18:54;16.80;99.90
20735;DHT22;10528;52.124;5.196;2023-05-16T09:21:30;16.40;99.90
20735;DHT22;10528;52.124;5.196;2023-05-16T09:24:05;16.20;99.90
20735;DHT22;10528;52.124;5.196;2023-05-16T09:26:37;16.40;99.90
20735;DHT22;10528;52.124;5.196;2023-05-16T09:29:11;16.30;99.90
20735;DHT22;10528;52.124;5.196;2023-05-16T09:31:39;16.20;99.90
20735;DHT22;10528;52.124;5.196;2023-05-16T09:34:09;15.80;99.90
20735;DHT22;10528;52.124;5.196;2023-05-16T09:36:36;16.10;99.90
20735;DHT22;10528;52.124;5.196;2023-05-16T09:39:07;16.20;99.90
20735;DHT22;10528;52.124;5.196;2023-05-16T09:41:34;16.70;99.90
20735;DHT22;10528;52.124;5.196;2023-05-16T09:44:05;17.10;99.90
20735;DHT22;10528;52.124;5.196;2023-05-16T09:46:37;16.60;99.90
20735;DHT22;10528;52.124;5.196;2023-05-16T09:49:04;16.70;99.90
20735;DHT22;10528;52.124;5.196;2023-05-16T09:51:31;16.30;99.90
20735;DHT22;10528;52.124;5.196;2023-05-16T09:53:58;16.40;99.90
20735;DHT22;10528;52.124;5.196;2023-05-16T09:56:26;16.70;99.90
20735;DHT22;10528;52.124;5.196;2023-05-16T09:58:53;16.80;99.90
20735;DHT22;10528;52.124;5.196;2023-05-16T10:01:19;17.30;99.90
20735;DHT22;10528;52.124;5.196;2023-05-16T10:03:47;16.90;99.90
20735;DHT22;10528;52.124;5.196;2023-05-16T10:06:14;17.10;99.90
20735;DHT22;10528;52.124;5.196;2023-05-16T10:08:42;16.90;99.90
20735;DHT22;10528;52.124;5.196;2023-05-16T10:11:10;17.10;99.90
20735;DHT22;10528;52.124;5.196;2023-05-16T10:13:38;16.80;99.90
20735;DHT22;10528;52.124;5.196;2023-05-16T10:16:09;16.40;99.90
20735;DHT22;10528;52.124;5.196;2023-05-16T10:18:38;16.50;99.90
20735;DHT22;10528;52.124;5.196;2023-05-16T10:21:12;16.40;99.90
20735;DHT22;10528;52.124;5.196;2023-05-16T10:23:42;16.60;99.90
20735;DHT22;10528;52.124;5.196;2023-05-16T10:26:15;17.10;99.90
20735;DHT22;10528;52.124;5.196;2023-05-16T10:28:43;17.40;99.90
20735;DHT22;10528;52.124;5.196;2023-05-16T10:31:11;17.20;99.90
20735;DHT22;10528;52.124;5.196;2023-05-16T10:33:40;17.60;99.90
20735;DHT22;10528;52.124;5.196;2023-05-16T10:36:10;17.60;99.90
20735;DHT22;10528;52.124;5.196;2023-05-16T10:38:39;17.50;99.90
20735;DHT22;10528;52.124;5.196;2023-05-16T10:41:07;17.20;99.90
20735;DHT22;10528;52.124;5.196;2023-05-16T10:43:35;17.00;99.90
20735;DHT22;10528;52.124;5.196;2023-05-16T10:46:09;16.80;99.90
20735;DHT22;10528;52.124;5.196;2023-05-16T10:48:38;16.90;99.90
20735;DHT22;10528;52.124;5.196;2023-05-16T10:51:33;16.60;99.90
20735;DHT22;10528;52.124;5.196;2023-05-16T10:54:08;16.40;99.90
20735;DHT22;10528;52.124;5.196;2023-05-16T10:56:36;16.40;99.90
20735;DHT22;10528;52.124;5.196;2023-05-16T10:59:04;16.60;99.90
20735;DHT22;10528;52.124;5.196;2023-05-16T11:01:52;16.80;99.90
20735;DHT22;10528;52.124;5.196;2023-05-16T11:04:20;17.00;99.90
20735;DHT22;10528;52.124;5.196;2023-05-16T11:06:52;16.90;99.90
20735;DHT22;10528;52.124;5.196;2023-05-16T11:09:23;17.20;99.90
20735;DHT22;10528;52.124;5.196;2023-05-16T11:12:00;17.80;99.90
20735;DHT22;10528;52.124;5.196;2023-05-16T11:17:21;17.40;99.90
20735;DHT22;10528;52.124;5.196;2023-05-16T11:19:57;17.20;99.90
20735;DHT22;10528;52.124;5.196;2023-05-16T11:22:32;16.70;99.90
20735;DHT22;10528;52.124;5.196;2023-05-16T11:25:07;16.40;99.90
20735;DHT22;10528;52.124;5.196;2023-05-16T11:27:42;16.40;99.90
20735;DHT22;10528;52.124;5.196;2023-05-16T11:30:13;16.50;99.90
20735;DHT22;10528;52.124;5.196;2023-05-16T11:32:42;16.40;99.90
20735;DHT22;10528;52.124;5.196;2023-05-16T11:35:13;16.70;99.90
20735;DHT22;10528;52.124;5.196;2023-05-16T11:37:42;16.50;99.90
20735;DHT22;10528;52.124;5.196;2023-05-16T11:40:11;16.60;99.90
20735;DHT22;10528;52.124;5.196;2023-05-16T11:42:41;16.50;99.90
20735;DHT22;10528;52.124;5.196;2023-05-16T11:45:14;16.40;99.90
20735;DHT22;10528;52.124;5.196;2023-05-16T11:47:43;16.30;99.90
20735;DHT22;10528;52.124;5.196;2023-05-16T11:50:13;16.20;99.90
20735;DHT22;10528;52.124;5.196;2023-05-16T11:52:49;15.90;99.90
20735;DHT22;10528;52.124;5.196;2023-05-16T11:55:21;16.20;99.90
20735;DHT22;10528;52.124;5.196;2023-05-16T11:58:06;16.00;99.90
20735;DHT22;10528;52.124;5.196;2023-05-16T12:00:33;16.10;99.90
20735;DHT22;10528;52.124;5.196;2023-05-16T12:03:02;16.30;99.90
20735;DHT22;10528;52.124;5.196;2023-05-16T12:05:32;16.60;99.90
20735;DHT22;10528;52.124;5.196;2023-05-16T12:08:02;16.60;99.90
20735;DHT22;10528;52.124;5.196;2023-05-16T12:10:31;16.60;99.90
20735;DHT22;10528;52.124;5.196;2023-05-16T12:13:01;17.00;99.90
20735;DHT22;10528;52.124;5.196;2023-05-16T12:15:28;17.00;99.90
20735;DHT22;10528;52.124;5.196;2023-05-16T12:17:56;16.90;99.90
20735;DHT22;10528;52.124;5.196;2023-05-16T12:20:24;17.10;99.90
20735;DHT22;10528;52.124;5.196;2023-05-16T12:22:51;16.80;99.90
20735;DHT22;10528;52.124;5.196;2023-05-16T12:25:27;16.90;99.90
20735;DHT22;10528;52.124;5.196;2023-05-16T12:28:00;16.60;99.90
20735;DHT22;10528;52.124;5.196;2023-05-16T12:30:30;16.50;99.90
20735;DHT22;10528;52.124;5.196;2023-05-16T12:35:31;16.20;99.90
20735;DHT22;10528;52.124;5.196;2023-05-16T12:38:03;16.10;99.90
20735;DHT22;10528;52.124;5.196;2023-05-16T12:40:31;16.70;99.90
20735;DHT22;10528;52.124;5.196;2023-05-16T12:42:58;17.10;99.90
20735;DHT22;10528;52.124;5.196;2023-05-16T12:45:26;16.80;99.90
20735;DHT22;10528;52.124;5.196;2023-05-16T12:47:53;16.70;99.90
20735;DHT22;10528;52.124;5.196;2023-05-16T12:50:21;16.40;99.90
20735;DHT22;10528;52.124;5.196;2023-05-16T12:52:50;16.70;99.90
20735;DHT22;10528;52.124;5.196;2023-05-16T12:55:21;16.60;99.90
20735;DHT22;10528;52.124;5.196;2023-05-16T12:57:49;16.50;99.90
20735;DHT22;10528;52.124;5.196;2023-05-16T13:00:18;16.40;99.90
20735;DHT22;10528;52.124;5.196;2023-05-16T13:02:47;16.50;99.90
20735;DHT22;10528;52.124;5.196;2023-05-16T13:05:15;16.30;99.90
20735;DHT22;10528;52.124;5.196;2023-05-16T13:07:42;16.20;99.90
20735;DHT22;10528;52.124;5.196;2023-05-16T13:10:10;16.10;99.90
20735;DHT22;10528;52.124;5.196;2023-05-16T13:12:40;16.30;99.90
20735;DHT22;10528;52.124;5.196;2023-05-16T13:15:09;16.20;99.90
20735;DHT22;10528;52.124;5.196;2023-05-16T13:17:38;16.10;99.90
20735;DHT22;10528;52.124;5.196;2023-05-16T13:20:06;16.10;99.90
20735;DHT22;10528;52.124;5.196;2023-05-16T13:22:35;16.00;99.90
20735;DHT22;10528;52.124;5.196;2023-05-16T13:25:03;16.20;99.90
20735;DHT22;10528;52.124;5.196;2023-05-16T13:27:32;16.30;99.90
20735;DHT22;10528;52.124;5.196;2023-05-16T13:30:00;16.20;99.90
20735;DHT22;10528;52.124;5.196;2023-05-16T13:32:27;16.40;99.90
20735;DHT22;10528;52.124;5.196;2023-05-16T13:34:54;16.60;99.90
20735;DHT22;10528;52.124;5.196;2023-05-16T13:37:21;16.70;99.90
20735;DHT22;10528;52.124;5.196;2023-05-16T13:39:50;16.60;99.90
20735;DHT22;10528;52.124;5.196;2023-05-16T13:42:18;16.70;99.90
20735;DHT22;10528;52.124;5.196;2023-05-16T13:44:44;16.40;99.90
20735;DHT22;10528;52.124;5.196;2023-05-16T13:47:11;16.50;99.90
20735;DHT22;10528;52.124;5.196;2023-05-16T13:49:38;16.70;99.90
20735;DHT22;10528;52.124;5.196;2023-05-16T13:52:05;16.40;99.90
20735;DHT22;10528;52.124;5.196;2023-05-16T13:54:33;16.40;99.90
20735;DHT22;10528;52.124;5.196;2023-05-16T13:57:00;17.00;99.90
20735;DHT22;10528;52.124;5.196;2023-05-16T13:59:28;16.90;99.90
20735;DHT22;10528;52.124;5.196;2023-05-16T14:02:15;17.00;99.90
20735;DHT22;10528;52.124;5.196;2023-05-16T14:04:42;17.20;99.90
20735;DHT22;10528;52.124;5.196;2023-05-16T14:07:09;17.40;99.90
20735;DHT22;10528;52.124;5.196;2023-05-16T14:09:36;17.40;99.90
20735;DHT22;10528;52.124;5.196;2023-05-16T14:12:05;17.30;99.90
20735;DHT22;10528;52.124;5.196;2023-05-16T14:14:34;17.40;99.90
20735;DHT22;10528;52.124;5.196;2023-05-16T14:17:01;17.10;99.90
20735;DHT22;10528;52.124;5.196;2023-05-16T14:19:29;17.10;99.90
20735;DHT22;10528;52.124;5.196;2023-05-16T14:21:57;17.00;99.90
20735;DHT22;10528;52.124;5.196;2023-05-16T14:24:24;17.00;99.90
20735;DHT22;10528;52.124;5.196;2023-05-16T14:26:50;16.80;99.90
20735;DHT22;10528;52.124;5.196;2023-05-16T14:29:20;16.90;99.90
20735;DHT22;10528;52.124;5.196;2023-05-16T14:31:48;17.10;99.90
20735;DHT22;10528;52.124;5.196;2023-05-16T14:34:15;17.30;99.90
20735;DHT22;10528;52.124;5.196;2023-05-16T14:36:42;17.40;99.90
20735;DHT22;10528;52.124;5.196;2023-05-16T14:39:09;17.60;99.90
20735;DHT22;10528;52.124;5.196;2023-05-16T14:41:36;17.50;99.90
20735;DHT22;10528;52.124;5.196;2023-05-16T14:44:03;17.50;99.90
20735;DHT22;10528;52.124;5.196;2023-05-16T14:46:30;17.60;99.90
20735;DHT22;10528;52.124;5.196;2023-05-16T14:48:57;17.60;99.90
20735;DHT22;10528;52.124;5.196;2023-05-16T14:51:24;17.70;99.90
20735;DHT22;10528;52.124;5.196;2023-05-16T14:53:51;17.60;99.90
20735;DHT22;10528;52.124;5.196;2023-05-16T14:56:18;17.20;99.90
20735;DHT22;10528;52.124;5.196;2023-05-16T14:58:45;17.20;99.90
20735;DHT22;10528;52.124;5.196;2023-05-16T15:01:12;17.40;99.90
20735;DHT22;10528;52.124;5.196;2023-05-16T15:03:40;17.30;99.90
20735;DHT22;10528;52.124;5.196;2023-05-16T15:06:10;17.30;99.90
20735;DHT22;10528;52.124;5.196;2023-05-16T15:08:37;17.20;99.90
20735;DHT22;10528;52.124;5.196;2023-05-16T15:11:04;17.40;99.90
20735;DHT22;10528;52.124;5.196;2023-05-16T15:13:31;17.50;99.90
20735;DHT22;10528;52.124;5.196;2023-05-16T15:15:58;17.70;99.90
20735;DHT22;10528;52.124;5.196;2023-05-16T15:18:25;17.70;99.90
20735;DHT22;10528;52.124;5.196;2023-05-16T15:20:51;17.60;99.90
20735;DHT22;10528;52.124;5.196;2023-05-16T15:23:19;17.40;99.90
20735;DHT22;10528;52.124;5.196;2023-05-16T15:25:46;17.30;99.90
20735;DHT22;10528;52.124;5.196;2023-05-16T15:28:13;17.00;99.90
20735;DHT22;10528;52.124;5.196;2023-05-16T15:30:40;17.10;99.90
20735;DHT22;10528;52.124;5.196;2023-05-16T15:33:06;16.70;99.90
20735;DHT22;10528;52.124;5.196;2023-05-16T15:35:33;17.00;99.90
20735;DHT22;10528;52.124;5.196;2023-05-16T15:38:01;16.70;99.90
20735;DHT22;10528;52.124;5.196;2023-05-16T15:40:28;16.60;99.90
20735;DHT22;10528;52.124;5.196;2023-05-16T15:42:55;16.50;99.90
20735;DHT22;10528;52.124;5.196;2023-05-16T15:45:22;16.60;99.90
20735;DHT22;10528;52.124;5.196;2023-05-16T15:47:49;16.50;99.90
20735;DHT22;10528;52.124;5.196;2023-05-16T15:50:16;16.00;99.90
20735;DHT22;10528;52.124;5.196;2023-05-16T15:52:43;16.10;99.90
20735;DHT22;10528;52.124;5.196;2023-05-16T15:55:10;16.10;99.90
20735;DHT22;10528;52.124;5.196;2023-05-16T15:57:37;15.90;99.90
20735;DHT22;10528;52.124;5.196;2023-05-16T16:00:04;16.10;99.90
20735;DHT22;10528;52.124;5.196;2023-05-16T16:02:37;15.90;99.90